createdAt,value
2023-05-11T00:01:50.402Z,8.20
2023-05-11T00:04:53.297Z,6.40
2023-05-11T00:07:55.141Z,10.50
2023-05-11T00:10:56.908Z,8.10
2023-05-11T00:13:58.583Z,10.10
2023-05-11T00:17:00.305Z,11.10
2023-05-11T00:20:02.685Z,10.80
2023-05-11T00:23:04.376Z,6.80
2023-05-11T00:26:06.126Z,7.00
2023-05-11T00:29:07.772Z,8.80
2023-05-11T00:32:09.831Z,10.30
2023-05-11T00:35:11.829Z,7.20
2023-05-11T00:38:13.538Z,8.30
2023-05-11T00:41:15.436Z,10.20
2023-05-11T00:44:17.221Z,7.80
2023-05-11T00:47:19.426Z,9.70
2023-05-11T00:50:21.295Z,8.30
2023-05-11T00:53:23.224Z,7.90
2023-05-11T00:56:25.146Z,10.50
2023-05-11T00:59:26.980Z,11.50
2023-05-11T01:02:29.132Z,12.60
2023-05-11T01:05:41.502Z,8.80
2023-05-11T01:11:59.735Z,12.50
2023-05-11T01:15:12.002Z,9.40
2023-05-11T01:18:26.803Z,8.90
2023-05-11T01:21:32.734Z,9.60
2023-05-11T01:25:00.642Z,10.10
2023-05-11T01:28:11.695Z,9.10
2023-05-11T01:31:15.443Z,8.60
2023-05-11T01:34:21.811Z,8.00
2023-05-11T01:37:26.139Z,9.30
2023-05-11T01:40:32.080Z,9.00
2023-05-11T01:43:36.209Z,9.60
2023-05-11T01:46:39.357Z,10.70
2023-05-11T01:49:44.049Z,12.90
2023-05-11T01:52:47.394Z,8.50
2023-05-11T01:55:51.092Z,11.20
2023-05-11T01:58:54.809Z,11.00
2023-05-11T02:01:58.185Z,11.80
2023-05-11T02:05:01.321Z,10.00
2023-05-11T02:08:05.485Z,11.40
2023-05-11T02:11:09.806Z,12.50
2023-05-11T02:14:12.366Z,16.20
2023-05-11T02:20:19.945Z,14.50
2023-05-11T02:23:23.181Z,14.30
2023-05-11T02:26:25.233Z,18.10
2023-05-11T02:29:27.364Z,20.20
2023-05-11T02:32:32.074Z,16.80
2023-05-11T02:35:40.265Z,17.70
2023-05-11T02:38:45.476Z,15.50
2023-05-11T02:41:54.718Z,13.80
2023-05-11T02:45:01.910Z,15.30
2023-05-11T02:48:15.333Z,14.30
2023-05-11T02:51:21.610Z,15.30
2023-05-11T02:54:26.679Z,14.40
2023-05-11T02:57:28.898Z,18.90
2023-05-11T03:00:32.108Z,12.40
2023-05-11T03:03:34.086Z,15.00
2023-05-11T03:06:36.836Z,12.30
2023-05-11T03:09:39.509Z,12.30
2023-05-11T03:15:44.093Z,13.10
2023-05-11T03:18:48.156Z,16.00
2023-05-11T03:21:52.084Z,13.30
2023-05-11T03:24:54.109Z,15.30
2023-05-11T03:27:58.462Z,14.70
2023-05-11T03:31:00.538Z,16.90
2023-05-11T03:34:02.567Z,18.10
2023-05-11T03:37:09.835Z,17.90
2023-05-11T03:40:14.344Z,16.00
2023-05-11T03:43:29.537Z,14.00
2023-05-11T03:46:32.563Z,13.80
2023-05-11T03:49:37.495Z,15.80
2023-05-11T03:52:39.971Z,19.30
2023-05-11T03:55:41.938Z,15.70
2023-05-11T03:58:44.147Z,14.80
2023-05-11T04:01:46.496Z,16.50
2023-05-11T04:04:49.066Z,17.20
2023-05-11T04:07:51.374Z,15.20
2023-05-11T04:10:53.471Z,17.10
2023-05-11T04:13:55.193Z,17.70
2023-05-11T04:16:56.938Z,14.00
2023-05-11T04:19:58.778Z,15.40
2023-05-11T04:23:00.726Z,19.90
2023-05-11T04:26:02.447Z,15.50
2023-05-11T04:29:04.455Z,20.30
2023-05-11T04:32:06.360Z,16.80
2023-05-11T04:35:08.466Z,15.40
2023-05-11T04:38:12.315Z,20.20
2023-05-11T04:41:14.387Z,15.60
2023-05-11T04:44:16.674Z,16.10
2023-05-11T04:47:18.400Z,13.40
2023-05-11T04:50:21.620Z,14.30
2023-05-11T04:53:23.492Z,21.90
2023-05-11T04:56:25.768Z,13.40
2023-05-11T05:02:29.411Z,16.70
2023-05-11T05:05:31.288Z,15.20
2023-05-11T05:08:33.008Z,14.70
2023-05-11T05:11:34.825Z,14.30
2023-05-11T05:14:36.638Z,16.00
2023-05-11T05:17:39.734Z,16.30
2023-05-11T05:23:43.604Z,14.90
2023-05-11T05:26:46.073Z,13.00
2023-05-11T05:29:48.193Z,13.40
2023-05-11T05:32:50.176Z,11.20
2023-05-11T05:35:51.896Z,13.50
2023-05-11T05:38:53.934Z,13.30
2023-05-11T05:41:55.972Z,14.00
2023-05-11T05:44:58.720Z,11.10
2023-05-11T05:48:00.758Z,11.20
2023-05-11T05:51:02.807Z,14.70
2023-05-11T05:54:04.719Z,9.50
2023-05-11T05:57:06.747Z,10.20
2023-05-11T06:00:09.169Z,11.30
2023-05-11T06:03:14.718Z,11.30
2023-05-11T06:06:16.794Z,9.80
2023-05-11T06:09:18.564Z,11.10
2023-05-11T06:12:20.287Z,11.80
2023-05-11T06:15:24.534Z,9.20
2023-05-11T06:18:31.285Z,12.90
2023-05-11T06:24:35.011Z,15.50
2023-05-11T06:27:36.900Z,17.80
2023-05-11T06:30:39.249Z,16.10
2023-05-11T06:33:42.384Z,17.30
2023-05-11T06:36:49.352Z,18.40
2023-05-11T06:39:51.145Z,15.50
2023-05-11T06:42:53.149Z,18.60
2023-05-11T06:45:54.872Z,17.10
2023-05-11T06:48:56.594Z,14.00
2023-05-11T06:55:00.984Z,13.40
2023-05-11T06:58:02.674Z,15.30
2023-05-11T07:01:07.508Z,16.70
2023-05-11T07:04:09.485Z,14.30
2023-05-11T07:07:11.642Z,10.40
2023-05-11T07:10:13.413Z,10.60
2023-05-11T07:13:15.172Z,11.90
2023-05-11T07:16:17.031Z,12.50
2023-05-11T07:19:18.823Z,10.30
2023-05-11T07:22:21.134Z,8.80
2023-05-11T07:28:24.651Z,9.10
2023-05-11T07:31:26.792Z,4.90
2023-05-11T07:34:28.600Z,4.90
2023-05-11T07:37:30.445Z,5.70
2023-05-11T07:40:32.181Z,5.90
2023-05-11T07:43:34.008Z,4.90
2023-05-11T07:46:35.963Z,9.80
2023-05-11T07:52:45.995Z,9.30
2023-05-11T07:55:47.819Z,8.60
2023-05-11T07:58:49.688Z,7.10
2023-05-11T08:01:51.708Z,7.90
2023-05-11T08:04:53.503Z,9.40
2023-05-11T08:07:55.250Z,7.90
2023-05-11T08:10:57.118Z,6.90
2023-05-11T08:13:58.943Z,6.40
2023-05-11T08:17:00.738Z,6.80
2023-05-11T08:20:06.722Z,8.80
2023-05-11T08:23:10.197Z,6.50
2023-05-11T08:26:11.941Z,8.90
2023-05-11T08:29:13.732Z,5.80
2023-05-11T08:32:15.692Z,5.20
2023-05-11T08:38:19.589Z,4.50
2023-05-11T08:41:22.362Z,6.50
2023-05-11T08:44:25.935Z,10.10
2023-05-11T08:47:28.473Z,6.60
2023-05-11T08:50:30.522Z,4.20
2023-05-11T08:53:32.729Z,5.80
2023-05-11T08:56:36.740Z,5.10
2023-05-11T08:59:40.978Z,5.40
2023-05-11T09:02:43.683Z,5.10
2023-05-11T09:08:48.753Z,4.20
2023-05-11T09:11:51.227Z,3.70
2023-05-11T09:14:53.103Z,4.30
2023-05-11T09:17:58.135Z,3.60
2023-05-11T09:21:03.188Z,3.90
2023-05-11T09:24:05.587Z,3.40
2023-05-11T09:27:08.779Z,5.80
2023-05-11T09:30:23.265Z,3.90
2023-05-11T09:33:25.802Z,5.60
2023-05-11T09:39:39.871Z,5.20
2023-05-11T09:42:44.061Z,4.50
2023-05-11T09:45:47.825Z,6.30
2023-05-11T09:48:59.678Z,20.00
2023-05-11T09:52:01.568Z,7.90
2023-05-11T09:58:11.927Z,4.40
2023-05-11T10:01:16.105Z,4.70
2023-05-11T10:04:23.690Z,7.00
2023-05-11T10:07:33.221Z,2.60
2023-05-11T10:10:37.392Z,2.90
2023-05-11T10:13:40.002Z,4.90
2023-05-11T10:16:43.231Z,5.80
2023-05-11T10:19:46.906Z,10.40
2023-05-11T10:22:59.058Z,4.60
2023-05-11T10:29:03.777Z,6.70
2023-05-11T10:32:07.407Z,8.20
2023-05-11T10:35:09.514Z,6.60
2023-05-11T10:38:12.884Z,11.60
2023-05-11T10:41:31.497Z,10.80
2023-05-11T10:45:10.409Z,13.90
2023-05-11T10:48:49.297Z,13.20
2023-05-11T10:52:12.612Z,10.80
2023-05-11T10:55:38.500Z,13.90
2023-05-11T10:59:01.388Z,4.70
2023-05-11T11:02:03.551Z,4.10
2023-05-11T11:08:11.864Z,2.50
2023-05-11T11:11:32.002Z,3.20
2023-05-11T11:14:58.103Z,5.70
2023-05-11T11:18:23.077Z,3.60
2023-05-11T11:21:42.032Z,3.90
2023-05-11T11:24:45.152Z,5.00
2023-05-11T11:27:54.469Z,6.60
2023-05-11T11:31:27.472Z,4.30
2023-05-11T11:34:29.393Z,3.60
2023-05-11T11:38:04.070Z,5.90
2023-05-11T11:41:08.571Z,4.60
2023-05-11T11:44:22.430Z,3.10
2023-05-11T11:47:26.369Z,5.10
2023-05-11T11:50:28.317Z,4.80
2023-05-11T11:53:36.456Z,3.20
2023-05-11T11:56:40.487Z,2.80
2023-05-11T11:59:46.712Z,4.30
2023-05-11T12:02:49.336Z,2.90
2023-05-11T12:05:59.001Z,4.20
2023-05-11T12:09:00.934Z,3.40
2023-05-11T12:18:20.512Z,3.30
2023-05-11T12:21:27.124Z,3.40
2023-05-11T12:24:29.391Z,3.20
2023-05-11T12:27:31.485Z,4.00
2023-05-11T12:30:33.997Z,1.80
2023-05-11T12:33:45.245Z,4.00
2023-05-11T12:36:49.030Z,3.20
2023-05-11T12:39:55.423Z,2.20
2023-05-11T12:42:58.723Z,4.40
2023-05-11T12:46:00.764Z,2.10
2023-05-11T12:52:07.348Z,2.60
2023-05-11T12:55:11.261Z,4.40
2023-05-11T12:58:15.514Z,7.40
2023-05-11T13:01:23.830Z,2.90
2023-05-11T13:04:29.854Z,3.70
2023-05-11T13:07:31.697Z,3.80
2023-05-11T13:10:33.688Z,3.10
2023-05-11T13:16:37.183Z,5.90
2023-05-11T13:19:39.239Z,4.00
2023-05-11T13:22:41.358Z,3.90
2023-05-11T13:25:47.628Z,3.80
2023-05-11T13:28:58.379Z,5.00
2023-05-11T13:32:08.202Z,4.40
2023-05-11T13:38:12.618Z,3.30
2023-05-11T13:41:14.434Z,2.70
2023-05-11T13:44:16.200Z,2.80
2023-05-11T13:47:17.990Z,4.60
2023-05-11T13:50:20.029Z,6.10
2023-05-11T13:56:23.499Z,9.30
2023-05-11T13:59:25.502Z,5.30
2023-05-11T14:05:29.565Z,4.70
2023-05-11T14:08:31.327Z,5.30
2023-05-11T14:11:33.241Z,4.80
2023-05-11T14:14:35.155Z,3.00
2023-05-11T14:17:37.766Z,2.50
2023-05-11T14:20:42.865Z,5.00
2023-05-11T14:23:57.618Z,3.30
2023-05-11T14:27:04.420Z,4.00
2023-05-11T14:33:08.492Z,3.40
2023-05-11T14:36:10.389Z,6.30
2023-05-11T14:39:12.085Z,4.70
2023-05-11T14:42:14.459Z,3.60
2023-05-11T14:45:16.321Z,4.30
2023-05-11T14:48:18.773Z,5.00
2023-05-11T14:51:20.520Z,3.90
2023-05-11T14:54:22.212Z,4.60
2023-05-11T14:57:23.994Z,6.10
2023-05-11T15:00:25.951Z,2.70
2023-05-11T15:03:27.796Z,3.80
2023-05-11T15:06:29.740Z,3.90
2023-05-11T15:09:31.385Z,3.60
2023-05-11T15:12:33.177Z,8.60
2023-05-11T15:15:35.542Z,5.20
2023-05-11T15:18:37.270Z,2.60
2023-05-11T15:21:39.005Z,2.60
2023-05-11T15:24:40.748Z,5.50
2023-05-11T15:27:42.448Z,3.10
2023-05-11T15:33:46.093Z,2.20
2023-05-11T15:36:49.163Z,4.60
2023-05-11T15:39:51.058Z,3.30
2023-05-11T15:42:52.756Z,5.60
2023-05-11T15:45:54.760Z,3.30
2023-05-11T15:48:59.055Z,5.80
2023-05-11T15:52:01.711Z,6.50
2023-05-11T15:55:04.579Z,3.30
2023-05-11T15:58:07.712Z,3.50
2023-05-11T16:01:09.463Z,3.30
2023-05-11T16:04:11.378Z,2.80
2023-05-11T16:07:13.226Z,3.20
2023-05-11T16:10:14.870Z,4.10
2023-05-11T16:13:16.680Z,3.30
2023-05-11T16:16:18.471Z,2.80
2023-05-11T16:19:20.216Z,2.70
2023-05-11T16:22:21.970Z,3.40
2023-05-11T16:25:23.678Z,2.50
2023-05-11T16:28:25.410Z,2.50
2023-05-11T16:31:27.129Z,2.10
2023-05-11T16:34:29.046Z,2.10
2023-05-11T16:37:30.726Z,2.80
2023-05-11T16:40:32.391Z,2.90
2023-05-11T16:43:34.260Z,4.30
2023-05-11T16:46:36.072Z,2.80
2023-05-11T16:49:37.823Z,1.80
2023-05-11T16:52:40.807Z,3.00
2023-05-11T16:55:42.709Z,3.90
2023-05-11T16:58:44.546Z,3.10
2023-05-11T17:01:46.384Z,2.10
2023-05-11T17:04:48.289Z,4.80
2023-05-11T17:07:50.099Z,3.30
2023-05-11T17:10:51.912Z,5.40
2023-05-11T17:13:54.684Z,5.20
2023-05-11T17:16:56.347Z,2.70
2023-05-11T17:19:58.189Z,2.80
2023-05-11T17:22:59.940Z,3.20
2023-05-11T17:26:11.872Z,5.20
2023-05-11T17:29:14.453Z,4.90
2023-05-11T17:32:16.970Z,2.80
2023-05-11T17:35:19.022Z,7.40
2023-05-11T17:38:20.991Z,5.50
2023-05-11T17:41:22.698Z,3.60
2023-05-11T17:44:24.525Z,4.10
2023-05-11T17:47:26.354Z,3.70
2023-05-11T17:50:28.136Z,4.30
2023-05-11T17:53:30.070Z,5.00
2023-05-11T17:56:32.171Z,4.50
2023-05-11T18:02:35.588Z,3.10
2023-05-11T18:05:48.415Z,3.00
2023-05-11T18:08:51.345Z,4.10
2023-05-11T18:11:53.002Z,5.00
2023-05-11T18:14:54.832Z,5.30
2023-05-11T18:17:56.894Z,3.30
2023-05-11T18:24:05.579Z,3.60
2023-05-11T18:27:07.346Z,7.80
2023-05-11T18:30:09.505Z,3.10
2023-05-11T18:33:11.625Z,5.50
2023-05-11T18:36:14.437Z,3.60
2023-05-11T18:39:16.210Z,6.50
2023-05-11T18:42:18.483Z,6.40
2023-05-11T18:45:20.218Z,9.00
2023-05-11T18:48:22.023Z,7.30
2023-05-11T18:51:24.672Z,9.50
2023-05-11T18:54:26.436Z,8.40
2023-05-11T18:57:28.779Z,9.50
2023-05-11T19:00:36.241Z,4.90
2023-05-11T19:03:38.063Z,7.60
2023-05-11T19:06:39.824Z,6.10
2023-05-11T19:09:41.599Z,4.90
2023-05-11T19:12:43.358Z,7.70
2023-05-11T19:16:07.209Z,7.30
2023-05-11T19:19:09.148Z,9.50
2023-05-11T19:22:11.898Z,8.90
2023-05-11T19:25:13.858Z,6.80
2023-05-11T19:28:16.850Z,5.50
2023-05-11T19:31:18.553Z,6.30
2023-05-11T19:34:20.366Z,6.40
2023-05-11T19:37:22.266Z,7.50
2023-05-11T19:43:29.221Z,7.70
2023-05-11T19:46:31.156Z,5.50
2023-05-11T19:49:32.915Z,5.50
2023-05-11T19:52:35.968Z,7.90
2023-05-11T19:55:39.104Z,5.40
2023-05-11T19:58:41.134Z,4.40
2023-05-11T20:01:43.045Z,8.20
2023-05-11T20:04:45.912Z,6.10
2023-05-11T20:07:47.590Z,5.90
2023-05-11T20:10:49.317Z,5.00
2023-05-11T20:13:53.187Z,4.00
2023-05-11T20:17:08.889Z,6.40
2023-05-11T20:20:11.381Z,5.20
2023-05-11T20:23:13.862Z,4.70
2023-05-11T20:26:15.783Z,5.40
2023-05-11T20:29:18.420Z,5.40
2023-05-11T20:32:20.257Z,9.10
2023-05-11T20:35:22.417Z,8.50
2023-05-11T20:38:24.207Z,8.00
2023-05-11T20:41:28.348Z,8.70
2023-05-11T20:44:30.076Z,9.50
2023-05-11T20:47:31.832Z,4.90
2023-05-11T20:50:33.599Z,6.10
2023-05-11T20:53:35.315Z,9.50
2023-05-11T20:56:37.031Z,5.70
2023-05-11T21:02:44.397Z,9.70
2023-05-11T21:05:46.308Z,5.70
2023-05-11T21:08:48.839Z,7.80
2023-05-11T21:11:50.548Z,8.10
2023-05-11T21:14:52.900Z,6.10
2023-05-11T21:17:56.054Z,10.00
2023-05-11T21:20:58.548Z,6.70
2023-05-11T21:24:00.620Z,6.90
2023-05-11T21:27:02.889Z,12.90
2023-05-11T21:33:06.690Z,6.60
2023-05-11T21:36:08.615Z,6.00
2023-05-11T21:39:12.425Z,10.50
2023-05-11T21:42:14.625Z,7.80
2023-05-11T21:45:19.111Z,5.80
2023-05-11T21:48:21.506Z,7.80
2023-05-11T21:51:23.242Z,7.70
2023-05-11T21:54:25.003Z,8.40
2023-05-11T21:57:26.664Z,8.70
2023-05-11T22:00:28.422Z,6.80
2023-05-11T22:03:31.031Z,8.80
2023-05-11T22:06:32.772Z,6.40
2023-05-11T22:09:34.479Z,7.20
2023-05-11T22:12:36.292Z,8.10
2023-05-11T22:15:37.984Z,5.60
2023-05-11T22:18:39.925Z,6.00
2023-05-11T22:21:41.671Z,5.50
2023-05-11T22:24:43.560Z,10.10
2023-05-11T22:27:45.274Z,9.50
2023-05-11T22:30:47.031Z,9.30
2023-05-11T22:33:48.717Z,10.10
2023-05-11T22:36:50.380Z,7.50
2023-05-11T22:39:53.574Z,5.90
2023-05-11T22:42:55.317Z,8.00
2023-05-11T22:45:56.969Z,8.10
2023-05-11T22:48:58.743Z,7.80
2023-05-11T22:52:00.686Z,8.90
2023-05-11T22:55:03.390Z,8.80
2023-05-11T22:58:05.094Z,8.80
2023-05-11T23:01:06.881Z,8.50
2023-05-11T23:04:09.032Z,10.00
2023-05-11T23:07:12.086Z,7.00
2023-05-11T23:10:13.985Z,8.50
2023-05-11T23:13:15.676Z,8.80
2023-05-11T23:16:18.589Z,8.00
2023-05-11T23:19:20.522Z,8.10
2023-05-11T23:22:22.199Z,11.30
2023-05-11T23:25:25.277Z,7.70
2023-05-11T23:28:26.968Z,7.70
2023-05-11T23:31:28.864Z,6.50
2023-05-11T23:34:30.569Z,9.90
2023-05-11T23:37:32.479Z,5.50
2023-05-11T23:40:34.206Z,7.10
2023-05-11T23:43:36.626Z,6.20
2023-05-11T23:46:38.386Z,10.80
2023-05-11T23:49:40.383Z,8.90
2023-05-11T23:52:42.202Z,6.10
2023-05-11T23:55:47.360Z,6.30
2023-05-11T23:58:49.856Z,6.60
